Corson, South Dakota
Current Conditions -  °F | °C
As of 4:56 AM on Friday 31 Oct 2014 (Local Time) from KFSD Reporting Station
Few Clouds Few Clouds  
Wind Chill: 13°   Ceiling: Unl
Heat Index: 21°   Visibility: 10mi
Dew Point: 17°   Wind: 6mph
Humidity: 85%   Direction: 320°NW
Pressure: 30.53"   Gusts: NA
Location:  43.6275°N, 96.5916°W
Report Text: KFSD 310956Z 32005KT 10SM FEW250 M06/M08 A3053 RMK AO2 SLP358 T10611083
Loading
Personal Weather Stations






























Interactive Weather Map
Tropical Storm Tracking
New forecast layout! Learn more

10-Day Weather Forecast

Advertisements
Track Severe Weather on mobile